createdAt,value
2018-11-14T00:00:31.337Z,8.80
2018-11-14T00:03:01.757Z,8.90
2018-11-14T00:05:30.614Z,8.80
2018-11-14T00:08:00.877Z,8.80
2018-11-14T00:10:30.259Z,8.80
2018-11-14T00:12:59.154Z,8.80
2018-11-14T00:15:28.654Z,8.90
2018-11-14T00:17:57.508Z,8.90
2018-11-14T00:20:27.080Z,9.00
2018-11-14T00:22:55.953Z,9.00
2018-11-14T00:25:24.881Z,9.00
2018-11-14T00:27:54.939Z,9.00
2018-11-14T00:30:25.329Z,9.10
2018-11-14T00:32:55.562Z,9.10
2018-11-14T00:35:24.419Z,9.10
2018-11-14T00:37:53.286Z,9.00
2018-11-14T00:40:22.567Z,9.10
2018-11-14T00:42:51.446Z,9.10
2018-11-14T00:45:21.639Z,9.00
2018-11-14T00:47:51.295Z,9.00
2018-11-14T00:50:20.741Z,9.00
2018-11-14T00:52:50.787Z,9.00
2018-11-14T00:55:21.111Z,9.00
2018-11-14T00:57:51.009Z,9.00
2018-11-14T01:00:23.535Z,9.00
2018-11-14T01:02:52.467Z,8.90
2018-11-14T01:05:28.066Z,8.80
2018-11-14T01:07:57.243Z,8.80
2018-11-14T01:10:26.219Z,8.70
2018-11-14T01:12:55.860Z,8.60
2018-11-14T01:15:32.018Z,8.60
2018-11-14T01:18:01.757Z,8.50
2018-11-14T01:20:30.623Z,8.60
2018-11-14T01:23:01.790Z,8.60
2018-11-14T01:25:33.011Z,8.60
2018-11-14T01:28:02.518Z,8.60
2018-11-14T01:30:33.028Z,8.50
2018-11-14T01:33:02.452Z,8.30
2018-11-14T01:35:35.539Z,8.30
2018-11-14T01:38:04.626Z,8.20
2018-11-14T01:40:33.582Z,8.20
2018-11-14T01:43:02.457Z,8.30
2018-11-14T01:45:31.611Z,8.40
2018-11-14T01:48:00.464Z,8.50
2018-11-14T01:50:29.350Z,8.50
2018-11-14T01:52:58.775Z,8.50
2018-11-14T01:55:28.093Z,8.50
2018-11-14T01:57:58.045Z,8.40
2018-11-14T02:00:27.906Z,8.40
2018-11-14T02:02:57.024Z,8.40
2018-11-14T02:05:26.244Z,8.40
2018-11-14T02:07:56.254Z,8.40
2018-11-14T02:10:25.114Z,8.50
2018-11-14T02:12:54.435Z,8.50
2018-11-14T02:15:24.133Z,8.50
2018-11-14T02:17:54.111Z,8.40
2018-11-14T02:20:22.960Z,8.30
2018-11-14T02:22:52.061Z,8.20
2018-11-14T02:25:22.334Z,8.20
2018-11-14T02:27:51.673Z,8.30
2018-11-14T02:30:25.328Z,8.40
2018-11-14T02:32:55.403Z,8.40
2018-11-14T02:35:24.298Z,8.40
2018-11-14T02:37:53.158Z,8.40
2018-11-14T02:40:22.895Z,8.30
2018-11-14T02:42:52.402Z,8.20
2018-11-14T02:45:21.748Z,8.10
2018-11-14T02:47:51.105Z,8.00
2018-11-14T02:50:20.009Z,7.90
2018-11-14T02:52:49.385Z,8.10
2018-11-14T02:55:18.719Z,8.10
2018-11-14T02:57:48.351Z,8.20
2018-11-14T03:00:18.875Z,8.30
2018-11-14T03:02:48.219Z,8.30
2018-11-14T03:05:17.873Z,8.40
2018-11-14T03:07:46.939Z,8.40
2018-11-14T03:10:18.295Z,8.50
2018-11-14T03:12:47.138Z,8.60
2018-11-14T03:15:19.303Z,8.60
2018-11-14T03:17:48.376Z,8.60
2018-11-14T03:20:19.589Z,8.70
2018-11-14T03:22:51.255Z,8.80
2018-11-14T03:25:21.479Z,8.90
2018-11-14T03:27:50.329Z,9.00
2018-11-14T03:30:19.388Z,9.10
2018-11-14T03:32:49.221Z,9.10
2018-11-14T03:35:18.099Z,9.00
2018-11-14T03:37:46.951Z,9.00
2018-11-14T03:40:17.311Z,9.00
2018-11-14T03:42:46.179Z,9.00
2018-11-14T03:45:16.927Z,9.10
2018-11-14T03:47:45.897Z,9.10
2018-11-14T03:50:14.772Z,8.90
2018-11-14T03:52:43.695Z,8.80
2018-11-14T03:55:12.581Z,8.70
2018-11-14T03:57:41.407Z,8.70
2018-11-14T04:00:13.663Z,8.60
2018-11-14T04:02:43.696Z,8.60
2018-11-14T04:05:13.131Z,8.50
2018-11-14T04:07:42.282Z,8.30
2018-11-14T04:10:12.258Z,8.20
2018-11-14T04:12:42.339Z,8.20
2018-11-14T04:15:12.413Z,8.20
2018-11-14T04:17:41.450Z,8.20
2018-11-14T04:20:12.711Z,8.20
2018-11-14T04:22:41.650Z,8.30
2018-11-14T04:25:13.822Z,8.30
2018-11-14T04:27:44.153Z,8.30
2018-11-14T04:30:16.570Z,8.20
2018-11-14T04:32:45.467Z,8.20
2018-11-14T04:35:16.231Z,8.10
2018-11-14T04:37:45.805Z,8.00
2018-11-14T04:40:16.889Z,7.90
2018-11-14T04:42:45.769Z,7.90
2018-11-14T04:45:23.348Z,7.80
2018-11-14T04:47:53.056Z,7.70
2018-11-14T04:50:24.643Z,7.70
2018-11-14T04:52:55.734Z,7.80
2018-11-14T04:55:25.657Z,7.80
2018-11-14T04:57:58.635Z,7.90
2018-11-14T05:00:28.132Z,7.90
2018-11-14T05:02:56.955Z,7.80
2018-11-14T05:05:25.911Z,7.80
2018-11-14T05:07:54.844Z,7.80
2018-11-14T05:10:26.304Z,7.70
2018-11-14T05:12:55.449Z,7.60
2018-11-14T05:15:25.392Z,7.60
2018-11-14T05:17:54.766Z,7.60
2018-11-14T05:20:24.219Z,7.50
2018-11-14T05:22:53.242Z,7.50
2018-11-14T05:25:22.538Z,7.50
2018-11-14T05:27:51.634Z,7.50
2018-11-14T05:30:21.887Z,7.50
2018-11-14T05:32:51.977Z,7.40
2018-11-14T05:35:21.174Z,7.40
2018-11-14T05:37:50.277Z,7.30
2018-11-14T05:40:20.562Z,7.10
2018-11-14T05:42:51.201Z,7.00
2018-11-14T05:45:26.752Z,6.90
2018-11-14T05:47:55.826Z,6.80
2018-11-14T05:50:24.801Z,6.70
2018-11-14T05:52:53.758Z,6.70
2018-11-14T05:55:23.882Z,6.60
2018-11-14T05:57:52.713Z,6.60
2018-11-14T06:00:27.127Z,6.50
2018-11-14T06:02:57.249Z,6.60
2018-11-14T06:05:26.871Z,6.70
2018-11-14T06:07:55.847Z,6.70
2018-11-14T06:10:24.819Z,6.70
2018-11-14T06:12:53.684Z,6.70
2018-11-14T06:15:22.997Z,6.60
2018-11-14T06:17:52.688Z,6.60
2018-11-14T06:20:22.277Z,6.60
2018-11-14T06:22:51.929Z,6.60
2018-11-14T06:25:29.561Z,6.60
2018-11-14T06:27:59.962Z,6.50
2018-11-14T06:30:30.303Z,6.50
2018-11-14T06:33:00.815Z,6.50
2018-11-14T06:35:30.745Z,6.50
2018-11-14T06:38:00.973Z,6.50
2018-11-14T06:40:29.901Z,6.60
2018-11-14T06:42:59.077Z,6.50
2018-11-14T06:45:30.839Z,6.40
2018-11-14T06:48:00.499Z,6.40
2018-11-14T06:50:30.634Z,6.30
2018-11-14T06:53:01.137Z,6.30
2018-11-14T06:55:32.319Z,6.20
2018-11-14T06:58:01.362Z,6.20
2018-11-14T07:00:35.287Z,6.20
2018-11-14T07:03:05.607Z,6.20
2018-11-14T07:05:34.982Z,6.10
2018-11-14T07:08:04.290Z,6.20
2018-11-14T07:10:35.242Z,6.20
2018-11-14T07:13:06.322Z,6.30
2018-11-14T07:15:35.742Z,6.40
2018-11-14T07:18:04.727Z,6.50
2018-11-14T07:20:35.776Z,6.50
2018-11-14T07:23:04.735Z,6.60
2018-11-14T07:25:34.135Z,6.70
2018-11-14T07:28:04.968Z,6.70
2018-11-14T07:30:34.506Z,6.70
2018-11-14T07:33:04.739Z,6.70
2018-11-14T07:35:33.609Z,6.70
2018-11-14T07:39:07.897Z,6.80
2018-11-14T07:41:38.132Z,7.00
2018-11-14T07:44:07.119Z,7.00
2018-11-14T07:46:36.567Z,7.00
2018-11-14T07:49:05.920Z,7.00
2018-11-14T07:51:34.785Z,7.10
2018-11-14T07:54:04.977Z,7.10
2018-11-14T07:56:33.813Z,7.10
2018-11-14T07:59:03.487Z,7.20
2018-11-14T08:01:32.309Z,7.30
2018-11-14T08:04:01.171Z,7.30
2018-11-14T08:06:30.050Z,7.30
2018-11-14T08:08:58.910Z,7.40
2018-11-14T08:11:28.175Z,7.40
2018-11-14T08:13:57.262Z,7.50
2018-11-14T08:16:28.083Z,7.50
2018-11-14T08:18:56.979Z,7.60
2018-11-14T08:21:26.677Z,7.60
2018-11-14T08:23:55.499Z,7.70
2018-11-14T08:26:25.118Z,7.70
2018-11-14T08:28:54.653Z,7.80
2018-11-14T08:31:23.584Z,7.80
2018-11-14T08:34:01.591Z,7.90
2018-11-14T08:36:41.810Z,7.90
2018-11-14T08:39:11.664Z,7.90
2018-11-14T08:41:45.935Z,7.90
2018-11-14T08:44:17.458Z,8.00
2018-11-14T08:46:46.340Z,8.10
2018-11-14T08:49:15.173Z,8.10
2018-11-14T08:51:44.016Z,8.20
2018-11-14T08:54:12.792Z,8.20
2018-11-14T08:56:41.591Z,8.30
2018-11-14T08:59:10.433Z,8.30
2018-11-14T09:01:44.873Z,8.40
2018-11-14T09:04:22.379Z,8.50
2018-11-14T09:06:55.099Z,8.60
2018-11-14T09:09:30.890Z,8.60
2018-11-14T09:12:12.048Z,8.70
2018-11-14T09:14:49.063Z,8.80
2018-11-14T09:20:08.113Z,8.90
2018-11-14T09:27:31.350Z,9.00
2018-11-14T09:30:00.141Z,9.10
2018-11-14T09:32:28.972Z,9.10
2018-11-14T09:34:57.821Z,9.20
2018-11-14T09:37:26.609Z,9.30
2018-11-14T09:39:55.385Z,9.30
2018-11-14T09:42:24.171Z,9.40
2018-11-14T09:44:52.965Z,9.40
2018-11-14T09:47:21.748Z,9.40
2018-11-14T09:49:50.553Z,9.40
2018-11-14T09:52:19.362Z,9.50
2018-11-14T09:54:48.143Z,9.60
2018-11-14T09:57:17.056Z,9.60
2018-11-14T09:59:45.832Z,9.70
2018-11-14T10:02:14.940Z,9.70
2018-11-14T10:04:43.923Z,9.80
2018-11-14T10:07:12.748Z,9.80
2018-11-14T10:09:41.528Z,9.90
2018-11-14T10:12:10.311Z,9.90
2018-11-14T10:14:39.101Z,10.00
2018-11-14T10:17:08.055Z,10.10
2018-11-14T10:19:36.828Z,10.10
2018-11-14T10:22:05.801Z,10.20
2018-11-14T10:24:34.596Z,10.20
2018-11-14T10:27:03.473Z,10.30
2018-11-14T10:29:35.364Z,10.30
2018-11-14T10:32:04.159Z,10.40
2018-11-14T10:34:32.936Z,10.40
2018-11-14T10:37:02.823Z,10.40
2018-11-14T10:39:33.875Z,10.60
2018-11-14T10:42:08.480Z,10.70
2018-11-14T10:44:44.290Z,10.70
2018-11-14T10:47:23.859Z,10.70
2018-11-14T10:49:55.834Z,10.70
2018-11-14T10:52:24.688Z,10.70
2018-11-14T10:54:54.388Z,10.80
2018-11-14T10:57:23.266Z,10.80
2018-11-14T10:59:52.768Z,11.00
2018-11-14T11:05:28.151Z,11.00
2018-11-14T11:08:14.938Z,11.00
2018-11-14T11:11:08.214Z,11.00
2018-11-14T11:14:13.598Z,11.00
2018-11-14T11:16:48.677Z,11.00
2018-11-14T11:19:21.906Z,11.10
2018-11-14T11:21:50.688Z,11.10
2018-11-14T11:24:20.704Z,11.20
2018-11-14T11:26:49.480Z,11.30
2018-11-14T11:29:18.321Z,11.40
2018-11-14T11:31:47.130Z,11.50
2018-11-14T11:34:16.024Z,11.60
2018-11-14T11:36:44.866Z,11.60
2018-11-14T11:39:15.400Z,11.70
2018-11-14T11:41:44.696Z,11.70
2018-11-14T11:44:13.921Z,11.80
2018-11-14T11:46:43.703Z,11.90
2018-11-14T11:49:12.904Z,12.10
2018-11-14T11:51:41.756Z,12.20
2018-11-14T11:54:10.532Z,12.30
2018-11-14T11:56:39.335Z,12.40
2018-11-14T11:59:08.582Z,12.50
2018-11-14T12:01:37.376Z,12.60
2018-11-14T12:04:06.264Z,12.70
2018-11-14T12:06:35.049Z,12.70
2018-11-14T12:09:05.068Z,12.80
2018-11-14T12:11:33.852Z,12.80
2018-11-14T12:14:02.676Z,12.70
2018-11-14T12:16:31.487Z,12.70
2018-11-14T12:19:00.405Z,12.60
2018-11-14T12:21:29.221Z,12.60
2018-11-14T12:23:57.997Z,12.60
2018-11-14T12:26:26.825Z,12.60
2018-11-14T12:28:55.593Z,12.60
2018-11-14T12:31:24.378Z,12.50
2018-11-14T12:33:53.165Z,12.60
2018-11-14T12:36:21.941Z,12.50
2018-11-14T12:38:50.745Z,12.50
2018-11-14T12:41:19.495Z,12.40
2018-11-14T12:43:48.299Z,12.40
2018-11-14T12:46:17.081Z,12.40
2018-11-14T12:48:45.890Z,12.40
2018-11-14T12:51:14.636Z,12.40
2018-11-14T12:53:43.492Z,12.40
2018-11-14T12:56:12.290Z,12.50
2018-11-14T12:58:41.064Z,12.50
2018-11-14T13:01:10.890Z,12.70
2018-11-14T13:03:39.893Z,12.70
2018-11-14T13:06:08.665Z,12.90
2018-11-14T13:08:37.432Z,13.00
2018-11-14T13:11:06.245Z,13.10
2018-11-14T13:13:40.348Z,13.20
2018-11-14T13:16:09.123Z,13.30
2018-11-14T13:18:37.910Z,13.30
2018-11-14T13:21:07.017Z,13.20
2018-11-14T13:23:35.809Z,13.20
2018-11-14T13:26:04.628Z,13.20
2018-11-14T13:28:33.398Z,13.20
2018-11-14T13:31:02.190Z,13.10
2018-11-14T13:33:31.178Z,13.10
2018-11-14T13:35:59.956Z,13.20
2018-11-14T13:38:28.893Z,13.20
2018-11-14T13:40:57.651Z,13.20
2018-11-14T13:43:26.469Z,13.10
2018-11-14T13:45:55.274Z,13.10
2018-11-14T13:48:24.043Z,13.20
2018-11-14T13:50:52.959Z,13.20
2018-11-14T13:53:21.636Z,13.30
2018-11-14T13:55:57.069Z,13.30
2018-11-14T13:58:25.833Z,13.40
2018-11-14T14:00:54.609Z,13.40
2018-11-14T14:03:23.392Z,13.50
2018-11-14T14:05:56.040Z,13.60
2018-11-14T14:08:27.646Z,13.70
2018-11-14T14:10:56.793Z,13.70
2018-11-14T14:13:26.398Z,13.70
2018-11-14T14:15:56.233Z,13.70
2018-11-14T14:18:25.144Z,13.60
2018-11-14T14:20:56.123Z,13.60
2018-11-14T14:23:26.058Z,13.60
2018-11-14T14:25:56.422Z,13.70
2018-11-14T14:28:35.350Z,13.70
2018-11-14T14:31:04.573Z,13.80
2018-11-14T14:33:33.926Z,13.90
2018-11-14T14:36:03.239Z,13.90
2018-11-14T14:38:33.299Z,13.90
2018-11-14T14:41:02.570Z,13.80
2018-11-14T14:43:36.871Z,13.70
2018-11-14T14:46:08.314Z,13.60
2018-11-14T14:48:38.762Z,13.50
2018-11-14T14:51:08.592Z,13.40
2018-11-14T14:53:37.888Z,13.20
2018-11-14T14:56:08.239Z,13.10
2018-11-14T14:58:37.331Z,13.00
2018-11-14T15:01:08.121Z,12.90
2018-11-14T15:03:39.115Z,12.70
2018-11-14T15:06:09.480Z,12.60
2018-11-14T15:08:40.152Z,12.40
2018-11-14T15:11:13.160Z,12.30
2018-11-14T15:13:42.842Z,12.20
2018-11-14T15:16:12.014Z,12.10
2018-11-14T15:18:41.920Z,11.90
2018-11-14T15:21:10.971Z,11.80
2018-11-14T15:23:40.454Z,11.70
2018-11-14T15:26:09.730Z,11.60
2018-11-14T15:28:38.823Z,11.50
2018-11-14T15:31:07.642Z,11.40
2018-11-14T15:33:36.505Z,11.30
2018-11-14T15:36:05.513Z,11.20
2018-11-14T15:38:34.438Z,11.10
2018-11-14T15:41:03.304Z,11.00
2018-11-14T15:43:32.156Z,10.90
2018-11-14T15:46:01.092Z,10.80
2018-11-14T15:48:30.189Z,10.70
2018-11-14T15:50:59.067Z,10.70
2018-11-14T15:53:28.343Z,10.60
2018-11-14T15:55:58.015Z,10.50
2018-11-14T15:58:31.316Z,10.40
2018-11-14T16:01:01.029Z,10.30
2018-11-14T16:03:31.649Z,10.20
2018-11-14T16:06:02.496Z,10.10
2018-11-14T16:08:31.589Z,10.00
2018-11-14T16:11:00.460Z,9.90
2018-11-14T16:13:29.318Z,9.80
2018-11-14T16:15:59.791Z,9.70
2018-11-14T16:18:28.904Z,9.60
2018-11-14T16:20:58.113Z,9.50
2018-11-14T16:23:28.534Z,9.40
2018-11-14T16:25:58.933Z,9.30
2018-11-14T16:28:29.147Z,9.20
2018-11-14T16:31:02.480Z,9.10
2018-11-14T16:33:39.029Z,9.00
2018-11-14T16:36:09.449Z,8.90
2018-11-14T16:38:38.601Z,8.80
2018-11-14T16:41:10.354Z,8.70
2018-11-14T16:46:18.151Z,8.60
2018-11-14T16:48:51.258Z,8.50
2018-11-14T16:51:21.013Z,8.50
2018-11-14T16:53:49.816Z,8.40
2018-11-14T16:56:18.618Z,8.40
2018-11-14T16:58:48.304Z,8.40
2018-11-14T17:01:24.476Z,8.30
2018-11-14T17:03:54.179Z,8.30
2018-11-14T17:06:23.180Z,8.20
2018-11-14T17:08:52.025Z,8.20
2018-11-14T17:16:52.647Z,8.00
2018-11-14T17:19:30.519Z,8.00
2018-11-14T17:22:11.287Z,8.10
2018-11-14T17:24:41.620Z,8.20
2018-11-14T17:27:16.995Z,8.30
2018-11-14T17:32:38.177Z,8.40
2018-11-14T17:35:20.661Z,8.40
2018-11-14T17:37:56.781Z,8.30
2018-11-14T17:43:08.766Z,8.30
2018-11-14T17:45:40.425Z,8.20
2018-11-14T17:48:13.098Z,8.20
2018-11-14T17:50:46.101Z,8.20
2018-11-14T17:53:20.770Z,8.20
2018-11-14T17:56:06.097Z,8.20
2018-11-14T17:58:36.792Z,8.20
2018-11-14T18:01:20.804Z,8.20
2018-11-14T18:03:59.691Z,8.20
2018-11-14T18:06:31.648Z,8.20
2018-11-14T18:09:03.850Z,8.20
2018-11-14T18:11:32.810Z,8.10
2018-11-14T18:14:07.770Z,8.10
2018-11-14T18:16:39.647Z,8.10
2018-11-14T18:19:11.313Z,8.10
2018-11-14T18:21:40.636Z,8.10
2018-11-14T18:24:12.952Z,8.10
2018-11-14T18:26:42.399Z,8.10
2018-11-14T18:29:25.512Z,8.00
2018-11-14T18:32:17.627Z,8.00
2018-11-14T18:34:46.501Z,8.00
2018-11-14T18:37:15.394Z,8.10
2018-11-14T18:39:44.313Z,8.00
2018-11-14T18:42:13.087Z,8.00
2018-11-14T18:44:41.911Z,8.10
2018-11-14T18:47:10.705Z,8.10
2018-11-14T18:49:39.512Z,8.00
2018-11-14T18:52:08.335Z,8.00
2018-11-14T18:54:37.118Z,7.90
2018-11-14T18:57:06.226Z,7.90
2018-11-14T18:59:35.003Z,7.90
2018-11-14T19:02:04.817Z,7.80
2018-11-14T19:04:35.736Z,7.70
2018-11-14T19:07:05.569Z,7.80
2018-11-14T19:09:36.680Z,7.70
2018-11-14T19:12:06.894Z,7.70
2018-11-14T19:14:36.500Z,7.70
2018-11-14T19:17:07.295Z,7.70
2018-11-14T19:19:38.986Z,7.70
2018-11-14T19:22:07.853Z,7.70
2018-11-14T19:24:37.371Z,7.70
2018-11-14T19:27:06.859Z,7.60
2018-11-14T19:29:37.825Z,7.60
2018-11-14T19:32:08.106Z,7.50
2018-11-14T19:34:37.833Z,7.60
2018-11-14T19:37:08.168Z,7.60
2018-11-14T19:39:38.361Z,7.60
2018-11-14T19:42:08.917Z,7.50
2018-11-14T19:44:39.611Z,7.50
2018-11-14T19:47:10.891Z,7.50
2018-11-14T19:49:40.143Z,7.50
2018-11-14T19:52:09.531Z,7.40
2018-11-14T19:54:41.287Z,7.40
2018-11-14T19:57:10.597Z,7.40
2018-11-14T19:59:46.628Z,7.40
2018-11-14T20:02:21.720Z,7.30
2018-11-14T20:04:55.897Z,7.30
2018-11-14T20:10:00.337Z,7.20
2018-11-14T20:12:32.074Z,7.10
2018-11-14T20:15:01.559Z,7.10
2018-11-14T20:17:30.414Z,7.00
2018-11-14T20:20:04.426Z,6.90
2018-11-14T20:22:34.032Z,6.80
2018-11-14T20:25:04.116Z,6.80
2018-11-14T20:27:34.513Z,6.80
2018-11-14T20:30:03.987Z,6.70
2018-11-14T20:33:00.528Z,6.70
2018-11-14T20:35:30.497Z,6.70
2018-11-14T20:37:59.915Z,6.70
2018-11-14T20:40:29.414Z,6.60
2018-11-14T20:43:00.089Z,6.60
2018-11-14T20:45:33.052Z,6.50
2018-11-14T20:48:04.017Z,6.60
2018-11-14T20:50:36.746Z,6.50
2018-11-14T20:53:06.516Z,6.50
2018-11-14T20:55:35.835Z,6.40
2018-11-14T20:58:04.635Z,6.40
2018-11-14T21:00:34.813Z,6.30
2018-11-14T21:03:07.041Z,6.30
2018-11-14T21:05:36.876Z,6.20
2018-11-14T21:08:23.152Z,6.20
2018-11-14T21:10:54.231Z,6.10
2018-11-14T21:13:28.035Z,6.00
2018-11-14T21:18:54.868Z,5.90
2018-11-14T21:21:24.947Z,5.90
2018-11-14T21:23:55.499Z,5.90
2018-11-14T21:26:27.344Z,5.80
2018-11-14T21:28:57.778Z,5.80
2018-11-14T21:31:28.722Z,5.80
2018-11-14T21:33:57.595Z,5.80
2018-11-14T21:36:28.298Z,5.80
2018-11-14T21:38:59.268Z,5.70
2018-11-14T21:41:35.893Z,5.70
2018-11-14T21:44:14.009Z,5.70
2018-11-14T21:46:48.396Z,5.60
2018-11-14T21:49:23.450Z,5.60
2018-11-14T21:52:00.045Z,5.60
2018-11-14T21:54:30.583Z,5.50
2018-11-14T21:57:00.459Z,5.50
2018-11-14T21:59:29.517Z,5.50
2018-11-14T22:02:02.419Z,5.50
2018-11-14T22:04:35.275Z,5.40
2018-11-14T22:07:04.024Z,5.40
2018-11-14T22:09:32.819Z,5.40
2018-11-14T22:12:01.636Z,5.30
2018-11-14T22:14:30.412Z,5.30
2018-11-14T22:16:59.162Z,5.30
2018-11-14T22:19:28.037Z,5.20
2018-11-14T22:21:56.684Z,5.20
2018-11-14T22:24:31.876Z,5.20
2018-11-14T22:27:00.648Z,5.20
2018-11-14T22:29:29.409Z,5.20
2018-11-14T22:31:58.168Z,5.30
2018-11-14T22:34:26.969Z,5.20
2018-11-14T22:36:55.728Z,5.30
2018-11-14T22:39:24.520Z,5.40
2018-11-14T22:41:53.296Z,5.50
2018-11-14T22:44:22.072Z,5.60
2018-11-14T22:46:50.855Z,5.80
2018-11-14T22:49:19.612Z,5.90
2018-11-14T22:51:48.428Z,6.00
2018-11-14T22:54:17.211Z,6.10
2018-11-14T22:56:46.072Z,6.20
2018-11-14T22:59:14.836Z,6.20
2018-11-14T23:01:43.656Z,6.20
2018-11-14T23:04:12.429Z,6.20
2018-11-14T23:06:41.244Z,6.30
2018-11-14T23:09:11.928Z,6.30
2018-11-14T23:11:41.124Z,6.40
2018-11-14T23:14:09.883Z,6.40
2018-11-14T23:16:38.659Z,6.40
2018-11-14T23:19:07.452Z,6.30
2018-11-14T23:21:36.212Z,6.30
2018-11-14T23:24:05.448Z,6.40
2018-11-14T23:26:34.248Z,6.40
2018-11-14T23:29:03.004Z,6.40
2018-11-14T23:31:31.765Z,6.20
2018-11-14T23:34:00.529Z,6.10
2018-11-14T23:36:29.348Z,6.00
2018-11-14T23:38:58.123Z,5.90
2018-11-14T23:41:26.887Z,5.90
2018-11-14T23:43:55.633Z,5.80
2018-11-14T23:46:25.284Z,5.70
2018-11-14T23:48:54.054Z,5.80
2018-11-14T23:51:22.827Z,5.80
2018-11-14T23:53:51.568Z,5.80
2018-11-14T23:56:20.337Z,5.80
2018-11-14T23:58:49.095Z,5.80
